Terminal Aerodrome Forecast
Issued by NWS

Home | Current Version | Previous Version | Text Only | Print | Product List | Glossary On
Versions: 1 2 3 4 5 6 7 8 9 10 11 12 13 14 15 16 17 18
000
FTUS44 KBMX 192300
TAFTOI
TAF
KTOI 192331Z 2000/2024 01009G18KT P6SM VCSH BKN035 OVC050
     FM200300 02006KT P6SM BKN040 BKN070
     FM200600 02004KT 5SM BR OVC025
     FM201500 05010KT P6SM BKN040=

USA.gov is the U.S. government's official web portal to all federal, state and local government web resources and services.